Time;durP1;ratioP1;P1;durP2;ratioP2;P2;SDS_P1;SDS_P2;PMS_P1;PMS_P2;Temp;Humidity;BMP_temperature;BMP_pressure;BME280_temperature;BME280_humidity;BME280_pressure;Samples;Min_cycle;Max_cycle;Signal;HPM_P1;HPM_P2
2023/11/18 00:01:59;;;;;;;6.43;3.30;;;5.50;99.90;;;;;;4161197;28;20029;-58
2023/11/18 00:04:01;;;;;;;7.23;3.93;;;5.40;99.90;;;;;;4162716;28;20538;-56
2023/11/18 00:06:03;;;;;;;5.33;3.20;;;5.50;99.90;;;;;;4161412;28;20022;-58
2023/11/18 00:08:04;;;;;;;6.57;3.57;;;5.40;99.90;;;;;;4161460;28;20091;-62
2023/11/18 00:10:06;;;;;;;3.53;2.30;;;5.50;99.90;;;;;;4164967;28;20084;-60
2023/11/18 00:12:08;;;;;;;5.40;3.07;;;5.50;99.90;;;;;;4161378;28;20421;-60
2023/11/18 00:14:11;;;;;;;5.17;2.97;;;5.50;99.90;;;;;;4162355;28;20045;-61
2023/11/18 00:16:12;;;;;;;5.07;3.03;;;5.50;99.90;;;;;;4163851;28;20095;-61
2023/11/18 00:18:13;;;;;;;2.83;2.60;;;5.50;99.90;;;;;;4161240;28;20041;-59
2023/11/18 00:20:16;;;;;;;5.13;3.03;;;5.50;99.90;;;;;;4162768;28;20151;-60
2023/11/18 00:22:17;;;;;;;5.27;3.50;;;5.50;99.90;;;;;;4162573;28;20050;-60
2023/11/18 00:24:18;;;;;;;5.93;3.23;;;5.50;99.90;;;;;;4161573;28;20405;-59
2023/11/18 00:26:19;;;;;;;5.70;3.00;;;5.50;99.90;;;;;;4165642;28;20477;-60
2023/11/18 00:28:20;;;;;;;6.13;3.40;;;5.50;99.90;;;;;;4160728;28;20033;-59
2023/11/18 00:30:21;;;;;;;4.00;2.93;;;5.50;99.90;;;;;;4162197;28;20029;-60
2023/11/18 00:32:23;;;;;;;4.77;3.37;;;5.50;99.90;;;;;;4160160;28;20033;-61
2023/11/18 00:34:24;;;;;;;4.43;3.10;;;5.50;99.90;;;;;;4162174;28;20041;-61
2023/11/18 00:36:25;;;;;;;4.63;3.27;;;5.50;99.90;;;;;;4173130;28;20041;-61
2023/11/18 00:38:26;;;;;;;3.97;3.17;;;5.50;99.90;;;;;;4177667;28;20040;-60
2023/11/18 00:40:29;;;;;;;4.63;3.10;;;5.50;99.90;;;;;;4178084;28;20473;-61
2023/11/18 00:42:30;;;;;;;4.43;3.30;;;5.50;99.90;;;;;;4177652;28;20033;-61
2023/11/18 00:44:31;;;;;;;4.77;3.73;;;5.60;99.90;;;;;;4177578;28;20045;-61
2023/11/18 00:46:35;;;;;;;4.80;3.17;;;5.60;99.90;;;;;;4176663;28;20514;-58
2023/11/18 00:48:37;;;;;;;4.47;2.50;;;5.60;99.90;;;;;;4178446;28;20033;-60
2023/11/18 00:50:38;;;;;;;3.63;2.80;;;5.50;99.90;;;;;;4177256;28;20033;-61
2023/11/18 00:52:41;;;;;;;2.43;1.80;;;5.60;99.90;;;;;;4178369;28;20051;-61
2023/11/18 00:54:42;;;;;;;4.77;3.63;;;5.60;99.90;;;;;;4168849;28;20402;-61
2023/11/18 00:56:43;;;;;;;3.80;2.93;;;5.60;99.90;;;;;;4162270;28;20360;-60
2023/11/18 00:58:44;;;;;;;5.33;3.37;;;5.60;99.90;;;;;;4161807;28;20059;-59
2023/11/18 01:00:45;;;;;;;4.50;3.00;;;5.60;99.90;;;;;;4161814;28;20105;-58
2023/11/18 01:02:48;;;;;;;6.80;4.03;;;5.60;99.90;;;;;;4160117;28;20095;-59
2023/11/18 01:04:50;;;;;;;6.83;4.27;;;5.50;99.90;;;;;;4161185;28;20466;-59
2023/11/18 01:06:51;;;;;;;9.40;5.73;;;5.50;99.90;;;;;;4160104;28;20033;-60
2023/11/18 01:08:53;;;;;;;5.43;3.33;;;5.50;99.90;;;;;;4175755;28;20044;-61
2023/11/18 01:10:54;;;;;;;3.70;2.80;;;5.50;99.90;;;;;;4177202;28;20086;-60
2023/11/18 01:12:57;;;;;;;6.13;3.60;;;5.50;99.90;;;;;;4177155;28;20102;-61
2023/11/18 01:14:58;;;;;;;3.33;2.53;;;5.50;99.90;;;;;;4176853;28;20509;-58
2023/11/18 01:16:59;;;;;;;5.63;3.20;;;5.50;99.90;;;;;;4175268;28;20115;-60
2023/11/18 01:19:00;;;;;;;5.17;3.07;;;5.50;99.90;;;;;;4177982;28;20098;-60
2023/11/18 01:21:02;;;;;;;4.93;3.27;;;5.50;99.90;;;;;;4176252;28;20033;-60
2023/11/18 01:23:04;;;;;;;4.70;3.33;;;5.50;99.90;;;;;;4172462;28;20088;-59
2023/11/18 01:25:06;;;;;;;4.37;3.47;;;5.50;99.90;;;;;;4160117;28;20477;-59
2023/11/18 01:27:10;;;;;;;4.93;3.03;;;5.50;99.90;;;;;;4160695;28;20041;-58
2023/11/18 01:29:13;;;;;;;3.77;2.93;;;5.50;99.90;;;;;;4160266;28;20029;-59
2023/11/18 01:31:14;;;;;;;3.70;3.00;;;5.50;99.90;;;;;;4164135;28;20107;-60
2023/11/18 01:33:15;;;;;;;4.17;2.70;;;5.50;99.90;;;;;;4176842;28;20025;-60
2023/11/18 01:35:16;;;;;;;4.23;3.10;;;5.50;99.90;;;;;;4177333;28;20048;-58
2023/11/18 01:37:17;;;;;;;2.87;2.40;;;5.40;99.90;;;;;;4171532;28;20033;-59
2023/11/18 01:39:19;;;;;;;4.07;2.90;;;5.30;99.90;;;;;;4159260;28;20041;-60
2023/11/18 01:41:20;;;;;;;3.37;2.87;;;5.30;99.90;;;;;;4172550;28;20029;-60
2023/11/18 01:43:22;;;;;;;3.53;2.87;;;5.20;99.90;;;;;;4174811;28;20045;-59
2023/11/18 01:45:26;;;;;;;5.13;2.93;;;5.10;99.90;;;;;;4175974;28;20082;-61
2023/11/18 01:47:27;;;;;;;2.93;2.40;;;5.00;99.90;;;;;;4170816;28;20037;-61
2023/11/18 01:49:29;;;;;;;2.57;2.00;;;5.00;99.90;;;;;;4177494;28;20106;-60
2023/11/18 01:51:30;;;;;;;2.77;1.90;;;4.90;99.90;;;;;;4170902;28;20049;-58
2023/11/18 01:53:33;;;;;;;2.77;1.70;;;4.90;99.90;;;;;;4163576;28;20485;-60
2023/11/18 01:55:34;;;;;;;2.20;1.60;;;4.80;99.90;;;;;;4159332;28;20095;-61
2023/11/18 01:57:36;;;;;;;4.20;1.43;;;4.80;99.90;;;;;;4163953;28;20164;-61
2023/11/18 01:59:37;;;;;;;3.20;1.33;;;4.80;99.90;;;;;;4159932;28;20107;-61
2023/11/18 02:01:39;;;;;;;2.07;1.57;;;4.70;99.90;;;;;;4160840;28;20099;-57
2023/11/18 02:03:42;;;;;;;4.00;2.00;;;4.70;99.90;;;;;;4162665;28;20049;-60
2023/11/18 02:05:43;;;;;;;1.90;0.97;;;4.70;99.90;;;;;;4160361;28;20038;-58
2023/11/18 02:07:46;;;;;;;2.73;1.20;;;4.70;99.90;;;;;;4165113;28;20049;-60
2023/11/18 02:09:47;;;;;;;2.07;1.30;;;4.70;99.90;;;;;;4177414;28;20423;-61
2023/11/18 02:12:09;;;;;;;5.83;2.00;;;4.70;99.90;;;;;;4176346;28;20072;-61
2023/11/18 02:14:16;;;;;;;2.53;1.20;;;4.70;99.90;;;;;;4177455;28;20033;-59
2023/11/18 02:16:20;;;;;;;1.97;1.70;;;4.70;99.90;;;;;;4176001;28;20423;-58
2023/11/18 02:18:22;;;;;;;2.77;2.10;;;4.70;99.90;;;;;;4177205;28;20481;-57
2023/11/18 02:20:24;;;;;;;6.50;3.00;;;4.70;99.90;;;;;;4161666;28;20118;-59
2023/11/18 02:22:26;;;;;;;5.40;2.37;;;4.60;99.90;;;;;;4161539;28;20453;-61
2023/11/18 02:24:36;;;;;;;3.37;2.50;;;4.70;99.90;;;;;;4160081;28;20080;-59
2023/11/18 02:26:37;;;;;;;3.25;2.00;;;4.70;99.90;;;;;;4160429;28;20083;-60
2023/11/18 02:28:38;;;;;;;4.33;2.03;;;4.70;99.90;;;;;;4162193;28;20033;-59
2023/11/18 02:30:42;;;;;;;3.27;2.20;;;4.70;99.90;;;;;;4163296;28;20034;-59
2023/11/18 02:32:59;;;;;;;2.03;1.50;;;4.70;99.90;;;;;;4162726;28;20886;-59
2023/11/18 02:35:15;;;;;;;2.53;1.47;;;4.60;99.90;;;;;;4162494;28;20045;-57
2023/11/18 02:37:17;;;;;;;1.80;1.20;;;4.70;99.90;;;;;;4163498;28;20547;-58
2023/11/18 02:39:28;;;;;;;1.70;1.47;;;4.70;99.90;;;;;;4162308;28;20037;-60
2023/11/18 02:41:30;;;;;;;1.17;0.90;;;4.70;99.90;;;;;;4163570;28;20487;-59
2023/11/18 02:43:31;;;;;;;0.93;0.83;;;4.70;99.90;;;;;;4162858;28;20420;-60
2023/11/18 02:45:35;;;;;;;1.27;0.80;;;4.60;99.90;;;;;;4163763;28;20289;-57
2023/11/18 02:47:37;;;;;;;1.07;0.60;;;4.60;99.90;;;;;;4161853;28;20544;-60
2023/11/18 02:49:38;;;;;;;1.30;0.73;;;4.60;99.90;;;;;;4163131;28;20042;-61
2023/11/18 02:51:40;;;;;;;2.07;0.90;;;4.60;99.90;;;;;;4162027;28;20428;-59
2023/11/18 02:53:44;;;;;;;3.07;1.10;;;4.60;99.90;;;;;;4164727;28;20087;-60
2023/11/18 02:55:46;;;;;;;0.60;0.60;;;4.60;99.90;;;;;;4162592;28;20038;-60
2023/11/18 02:57:47;;;;;;;2.07;0.70;;;4.60;99.90;;;;;;4166307;28;20558;-59
2023/11/18 02:59:48;;;;;;;1.33;0.80;;;4.60;99.90;;;;;;4178073;28;20099;-59
2023/11/18 03:01:54;;;;;;;1.37;0.83;;;4.60;99.90;;;;;;4163992;28;20053;-59
2023/11/18 03:03:55;;;;;;;7.80;1.00;;;4.60;99.90;;;;;;4162087;28;20499;-59
2023/11/18 03:05:57;;;;;;;2.60;0.83;;;4.60;99.90;;;;;;4163430;28;20034;-55
2023/11/18 03:07:58;;;;;;;3.83;1.00;;;4.60;99.90;;;;;;4165096;28;20122;-59
2023/11/18 03:09:59;;;;;;;0.80;0.60;;;4.60;99.90;;;;;;4162988;28;20469;-60
2023/11/18 03:12:01;;;;;;;1.37;0.90;;;4.50;99.90;;;;;;4162571;28;20060;-61
2023/11/18 03:14:04;;;;;;;1.50;1.40;;;4.60;99.90;;;;;;4169677;28;20068;-59
2023/11/18 03:16:12;;;;;;;2.60;1.40;;;4.50;99.90;;;;;;4178773;28;20087;-59
2023/11/18 03:18:15;;;;;;;3.37;1.37;;;4.50;99.90;;;;;;4177197;28;20049;-59
2023/11/18 03:20:22;;;;;;;3.70;1.20;;;4.60;99.90;;;;;;4175773;28;20029;-60
2023/11/18 03:22:23;;;;;;;4.87;1.80;;;4.60;99.90;;;;;;4176591;28;20452;-59
2023/11/18 03:24:25;;;;;;;3.17;1.90;;;4.70;99.90;;;;;;4179380;28;20048;-59
2023/11/18 03:26:26;;;;;;;2.10;1.70;;;4.70;99.90;;;;;;4178674;28;20480;-57
2023/11/18 03:28:27;;;;;;;2.77;1.60;;;4.70;99.90;;;;;;4178944;28;20106;-60
2023/11/18 03:30:28;;;;;;;2.27;1.70;;;4.70;99.90;;;;;;4177857;28;20025;-60
2023/11/18 03:32:31;;;;;;;2.73;1.90;;;4.70;99.90;;;;;;4162332;28;20087;-58
2023/11/18 03:34:32;;;;;;;3.37;1.77;;;4.80;99.90;;;;;;4161725;28;20054;-58
2023/11/18 03:36:33;;;;;;;2.40;1.50;;;4.80;99.90;;;;;;4163156;28;20428;-59
2023/11/18 03:38:34;;;;;;;4.80;2.40;;;4.70;99.90;;;;;;4161538;28;20096;-59
2023/11/18 03:40:36;;;;;;;1.53;1.00;;;4.80;99.90;;;;;;4162180;28;20033;-58
2023/11/18 03:42:38;;;;;;;3.67;1.90;;;4.80;99.90;;;;;;4162024;28;20067;-59
2023/11/18 03:44:40;;;;;;;5.63;3.30;;;4.80;99.90;;;;;;4162596;28;20057;-58
2023/11/18 03:46:42;;;;;;;5.43;2.93;;;4.80;99.90;;;;;;4162335;28;20402;-59
2023/11/18 03:48:44;;;;;;;3.93;2.30;;;4.80;99.90;;;;;;4162252;28;20076;-58
2023/11/18 03:50:45;;;;;;;3.27;2.17;;;4.80;99.90;;;;;;4162125;28;20033;-59
2023/11/18 03:52:46;;;;;;;3.10;2.30;;;4.90;99.90;;;;;;4161576;28;20033;-59
2023/11/18 03:54:47;;;;;;;2.63;1.83;;;4.80;99.90;;;;;;4162776;28;20038;-59
2023/11/18 03:56:48;;;;;;;2.60;1.60;;;4.80;99.90;;;;;;4161295;28;20096;-59
2023/11/18 03:58:49;;;;;;;2.13;1.80;;;4.80;99.90;;;;;;4162533;28;20481;-57
2023/11/18 04:00:51;;;;;;;3.50;1.60;;;4.90;99.90;;;;;;4162344;28;20095;-58
2023/11/18 04:02:52;;;;;;;2.13;1.80;;;4.90;99.90;;;;;;4162513;28;20053;-59
2023/11/18 04:04:53;;;;;;;2.30;1.40;;;4.90;99.90;;;;;;4161287;28;20037;-58
2023/11/18 04:06:55;;;;;;;1.67;1.00;;;4.90;99.90;;;;;;4161846;28;20046;-58
2023/11/18 04:08:56;;;;;;;1.87;1.30;;;4.90;99.90;;;;;;4150884;28;20072;-57
2023/11/18 04:10:58;;;;;;;1.13;0.77;;;4.80;99.90;;;;;;4178234;28;20510;-59
2023/11/18 04:12:59;;;;;;;1.67;1.00;;;4.90;99.90;;;;;;4177984;28;20074;-58
2023/11/18 04:15:00;;;;;;;1.80;1.00;;;4.90;99.90;;;;;;4178188;28;20099;-58
2023/11/18 04:17:01;;;;;;;0.50;0.50;;;4.80;99.90;;;;;;4177936;28;20041;-58
2023/11/18 04:19:02;;;;;;;0.50;0.50;;;4.90;99.90;;;;;;4178162;28;20625;-58
2023/11/18 04:21:04;;;;;;;0.93;0.60;;;4.90;99.90;;;;;;4177669;28;20107;-58
2023/11/18 04:23:05;;;;;;;1.03;0.70;;;4.90;99.90;;;;;;4175053;28;20045;-58
2023/11/18 04:25:08;;;;;;;0.93;0.70;;;4.80;99.90;;;;;;4173089;28;20400;-58
2023/11/18 04:27:10;;;;;;;1.00;0.50;;;4.90;99.90;;;;;;4176720;28;20052;-60
2023/11/18 04:29:11;;;;;;;1.30;0.70;;;4.80;99.90;;;;;;4174957;28;20044;-57
2023/11/18 04:31:12;;;;;;;2.63;0.67;;;4.80;99.90;;;;;;4175087;28;20049;-59
2023/11/18 04:33:14;;;;;;;0.80;0.73;;;4.80;99.90;;;;;;4177873;28;20553;-59
2023/11/18 04:35:15;;;;;;;0.60;0.57;;;4.90;99.90;;;;;;4172105;28;20148;-61
2023/11/18 04:37:18;;;;;;;0.57;0.37;;;4.80;99.90;;;;;;4178235;28;20091;-52
2023/11/18 04:39:20;;;;;;;2.97;0.10;;;4.70;99.90;;;;;;4176689;28;20021;-59
2023/11/18 04:41:23;;;;;;;0.20;0.10;;;4.40;99.90;;;;;;4156135;28;20054;-57
2023/11/18 04:43:24;;;;;;;0.27;0.00;;;4.30;99.90;;;;;;4177475;28;20067;-56
2023/11/18 04:45:25;;;;;;;1.20;0.10;;;4.10;99.90;;;;;;4177834;28;20029;-60
2023/11/18 04:47:26;;;;;;;0.10;0.00;;;4.00;99.90;;;;;;4160486;28;20115;-59
2023/11/18 04:49:27;;;;;;;0.10;0.00;;;3.80;99.90;;;;;;4161314;28;20029;-58
2023/11/18 04:51:29;;;;;;;0.70;0.20;;;3.70;99.90;;;;;;4175482;28;20099;-59
2023/11/18 04:53:30;;;;;;;2.93;0.20;;;3.50;99.90;;;;;;4177558;28;20738;-59
2023/11/18 04:55:31;;;;;;;0.27;0.10;;;3.40;99.90;;;;;;4177929;28;20095;-58
2023/11/18 04:57:32;;;;;;;0.67;0.00;;;3.30;99.90;;;;;;4176668;28;20293;-56
2023/11/18 04:59:34;;;;;;;0.37;0.00;;;3.30;99.90;;;;;;4174654;28;20351;-59
2023/11/18 05:01:36;;;;;;;0.33;0.20;;;3.10;99.90;;;;;;4160411;28;20329;-57
2023/11/18 05:03:37;;;;;;;0.10;0.10;;;3.00;99.90;;;;;;4161311;28;20291;-59
2023/11/18 05:05:40;;;;;;;0.47;0.27;;;3.00;99.90;;;;;;4160800;28;20316;-59
2023/11/18 05:07:42;;;;;;;0.20;0.10;;;3.00;99.90;;;;;;4175176;28;20290;-58
2023/11/18 05:09:43;;;;;;;0.43;0.20;;;2.90;99.90;;;;;;4177043;28;20370;-58
2023/11/18 05:11:45;;;;;;;0.33;0.10;;;2.90;99.90;;;;;;4177619;28;20335;-56
2023/11/18 05:13:46;;;;;;;0.27;0.10;;;2.90;99.90;;;;;;4176370;28;20815;-60
2023/11/18 05:15:47;;;;;;;0.63;0.10;;;2.80;99.90;;;;;;4177937;28;20285;-53
2023/11/18 05:17:48;;;;;;;0.10;0.10;;;2.70;99.90;;;;;;4157750;28;20736;-59
2023/11/18 05:19:49;;;;;;;0.60;0.10;;;2.70;99.90;;;;;;4164678;28;20275;-58
2023/11/18 05:21:50;;;;;;;0.87;0.00;;;2.70;99.90;;;;;;4161809;28;20289;-58
2023/11/18 05:23:51;;;;;;;0.20;0.10;;;2.60;99.90;;;;;;4176522;28;20335;-58
2023/11/18 05:25:53;;;;;;;0.47;0.17;;;2.60;99.90;;;;;;4177063;28;20270;-55
2023/11/18 05:27:54;;;;;;;1.37;0.20;;;2.60;99.90;;;;;;4170863;28;20677;-60
2023/11/18 05:29:55;;;;;;;14.83;3.80;;;2.50;99.90;;;;;;4160486;28;20389;-59
2023/11/18 05:31:56;;;;;;;46.70;10.93;;;2.50;99.90;;;;;;4159857;28;20269;-57
2023/11/18 05:33:57;;;;;;;10.23;2.90;;;2.50;99.90;;;;;;4161215;28;20717;-60
2023/11/18 05:35:59;;;;;;;27.70;6.60;;;2.50;99.90;;;;;;4160123;28;20294;-58
2023/11/18 05:38:00;;;;;;;4.97;1.73;;;2.50;99.90;;;;;;4161444;28;20270;-58
2023/11/18 05:40:07;;;;;;;4.67;1.57;;;2.50;99.90;;;;;;4159363;28;20279;-59
2023/11/18 05:42:10;;;;;;;3.63;1.07;;;2.40;99.90;;;;;;4160277;28;20324;-54
2023/11/18 05:44:17;;;;;;;7.37;2.70;;;2.40;99.90;;;;;;4176504;28;20324;-59
2023/11/18 05:46:22;;;;;;;24.47;10.17;;;2.40;99.90;;;;;;4169760;28;20285;-58
2023/11/18 05:48:23;;;;;;;7.60;5.10;;;2.40;99.90;;;;;;4174717;28;20328;-58
2023/11/18 05:50:25;;;;;;;1.73;1.33;;;2.40;99.90;;;;;;4160681;28;20267;-57
2023/11/18 05:52:27;;;;;;;3.97;2.03;;;2.40;99.90;;;;;;4144333;28;20267;-59
2023/11/18 05:54:28;;;;;;;1.37;0.80;;;2.50;99.90;;;;;;4192705;28;20273;-57
2023/11/18 05:56:29;;;;;;;0.70;0.50;;;2.50;99.90;;;;;;4193258;28;20753;-58
2023/11/18 05:58:32;;;;;;;1.23;0.93;;;2.50;99.90;;;;;;4193427;28;20274;-60
2023/11/18 06:00:33;;;;;;;1.20;0.40;;;2.50;99.90;;;;;;4176024;28;20258;-57
2023/11/18 06:02:39;;;;;;;1.10;0.60;;;2.50;99.90;;;;;;4163541;28;20337;-58
2023/11/18 06:04:41;;;;;;;1.10;0.37;;;2.40;99.90;;;;;;4179119;28;20296;-59
2023/11/18 06:06:43;;;;;;;1.13;0.63;;;2.50;99.90;;;;;;4179185;28;20274;-57
2023/11/18 06:08:44;;;;;;;0.90;0.50;;;2.50;99.90;;;;;;4165584;28;20332;-58
2023/11/18 06:10:45;;;;;;;0.80;0.30;;;2.50;99.90;;;;;;4164194;28;20263;-59
2023/11/18 06:12:46;;;;;;;2.00;0.33;;;2.50;99.90;;;;;;4173301;28;20262;-61
2023/11/18 06:14:48;;;;;;;1.07;0.43;;;2.50;99.90;;;;;;4178904;28;20282;-60
2023/11/18 06:16:50;;;;;;;1.10;0.53;;;2.50;99.90;;;;;;4179037;28;20292;-61
2023/11/18 06:18:55;;;;;;;1.20;0.43;;;2.50;99.90;;;;;;4177224;28;20288;-56
2023/11/18 06:20:56;;;;;;;1.93;1.20;;;2.50;99.90;;;;;;4180205;28;20684;-60
2023/11/18 06:22:57;;;;;;;1.33;0.60;;;2.50;99.90;;;;;;4178705;28;20324;-59
2023/11/18 06:24:58;;;;;;;1.20;0.80;;;2.50;99.90;;;;;;4180283;28;20270;-60
2023/11/18 06:26:59;;;;;;;1.97;0.60;;;2.50;99.90;;;;;;4178662;28;20266;-59
2023/11/18 06:29:00;;;;;;;1.00;0.60;;;2.60;99.90;;;;;;4179444;28;20367;-61
2023/11/18 06:31:01;;;;;;;2.50;0.80;;;2.60;99.90;;;;;;4179219;28;20721;-59
2023/11/18 06:33:03;;;;;;;3.23;1.47;;;2.60;99.90;;;;;;4179479;28;20258;-60
2023/11/18 06:35:05;;;;;;;2.23;1.63;;;2.60;99.90;;;;;;4180075;28;20351;-57
2023/11/18 06:37:07;;;;;;;2.30;1.17;;;2.60;99.90;;;;;;4179349;28;20270;-60
2023/11/18 06:39:08;;;;;;;2.00;0.87;;;2.70;99.90;;;;;;4180623;28;20266;-61
2023/11/18 06:41:15;;;;;;;1.93;0.77;;;2.70;99.90;;;;;;4178586;28;20981;-58
2023/11/18 06:43:16;;;;;;;2.63;1.40;;;2.70;99.90;;;;;;4180051;28;20266;-59
2023/11/18 06:45:17;;;;;;;1.33;0.60;;;2.70;99.90;;;;;;4178377;28;20278;-61
2023/11/18 06:47:19;;;;;;;1.33;0.60;;;2.70;99.90;;;;;;4179716;28;20744;-58
2023/11/18 06:49:20;;;;;;;2.67;1.43;;;2.70;99.90;;;;;;4178716;28;20282;-56
2023/11/18 06:51:24;;;;;;;2.50;1.27;;;2.70;99.90;;;;;;4180100;28;20274;-58
2023/11/18 06:53:26;;;;;;;3.30;1.67;;;2.60;99.90;;;;;;4178456;28;20270;-59
2023/11/18 06:55:27;;;;;;;3.60;1.70;;;2.70;99.90;;;;;;4180034;28;20327;-59
2023/11/18 06:57:28;;;;;;;2.40;1.30;;;2.70;99.90;;;;;;4178434;28;20266;-59
2023/11/18 06:59:29;;;;;;;4.33;2.00;;;2.70;99.90;;;;;;4179295;28;20312;-60
2023/11/18 07:01:31;;;;;;;1.60;1.03;;;2.70;99.90;;;;;;4178573;28;20320;-60
2023/11/18 07:03:32;;;;;;;2.47;1.20;;;2.70;99.90;;;;;;4179360;28;20320;-60
2023/11/18 07:05:33;;;;;;;2.83;1.40;;;2.70;99.90;;;;;;4179629;28;20283;-58
2023/11/18 07:07:37;;;;;;;4.20;1.80;;;2.70;99.90;;;;;;4178208;28;20262;-60
2023/11/18 07:09:39;;;;;;;5.17;1.50;;;2.70;99.90;;;;;;4178711;28;20782;-60
2023/11/18 07:11:43;;;;;;;2.70;1.47;;;2.80;99.90;;;;;;4177669;28;20258;-60
2023/11/18 07:13:45;;;;;;;3.53;1.60;;;2.80;99.90;;;;;;4178676;28;20668;-59
2023/11/18 07:15:46;;;;;;;6.67;2.87;;;2.80;99.90;;;;;;4176639;28;20294;-59
2023/11/18 07:17:47;;;;;;;5.87;2.37;;;2.80;99.90;;;;;;4179339;28;20749;-57
2023/11/18 07:19:49;;;;;;;5.13;2.10;;;2.80;99.90;;;;;;4178364;28;20262;-56
2023/11/18 07:21:50;;;;;;;4.07;1.20;;;2.80;99.90;;;;;;4179649;28;20274;-62
2023/11/18 07:23:51;;;;;;;5.57;2.10;;;2.80;99.90;;;;;;4177848;28;20332;-61
2023/11/18 07:25:53;;;;;;;4.07;1.50;;;2.80;99.90;;;;;;4175322;28;20316;-59
2023/11/18 07:27:55;;;;;;;3.13;1.23;;;2.80;99.90;;;;;;4176276;28;20282;-60
2023/11/18 07:29:57;;;;;;;3.07;1.60;;;2.70;99.90;;;;;;4178572;28;20339;-60
2023/11/18 07:31:59;;;;;;;3.43;1.20;;;2.70;99.90;;;;;;4178265;28;20324;-60
2023/11/18 07:34:00;;;;;;;2.20;1.03;;;2.80;99.90;;;;;;4178999;28;20340;-55
2023/11/18 07:36:05;;;;;;;3.67;1.60;;;2.70;99.90;;;;;;4168414;28;20310;-60
2023/11/18 07:38:07;;;;;;;5.00;1.90;;;2.70;99.90;;;;;;4161913;28;20286;-61
2023/11/18 07:40:08;;;;;;;9.97;4.97;;;2.70;99.90;;;;;;4162237;28;20301;-59
2023/11/18 07:42:11;;;;;;;6.37;2.63;;;2.70;99.90;;;;;;4161908;28;20309;-56
2023/11/18 07:44:12;;;;;;;9.63;4.57;;;2.70;99.90;;;;;;4162516;28;20282;-60
2023/11/18 07:46:14;;;;;;;7.90;4.23;;;2.70;99.90;;;;;;4164376;28;20692;-60
2023/11/18 07:48:17;;;;;;;5.63;3.40;;;2.70;99.90;;;;;;4162804;28;20792;-61
2023/11/18 07:50:19;;;;;;;3.87;2.10;;;2.80;99.90;;;;;;4147359;28;20268;-58
2023/11/18 07:52:20;;;;;;;1.90;1.00;;;2.70;99.90;;;;;;4161927;28;20279;-60
2023/11/18 07:54:21;;;;;;;1.40;0.90;;;2.80;99.90;;;;;;4164634;28;20317;-59
2023/11/18 07:56:23;;;;;;;2.60;1.40;;;2.70;99.90;;;;;;4162412;28;20750;-59
2023/11/18 07:58:24;;;;;;;1.93;1.07;;;2.70;99.90;;;;;;4168479;28;20308;-59
2023/11/18 08:00:26;;;;;;;4.30;2.10;;;2.70;99.90;;;;;;4172052;28;20297;-60
2023/11/18 08:02:27;;;;;;;2.20;1.50;;;2.70;99.90;;;;;;4177396;28;20924;-56
2023/11/18 08:04:29;;;;;;;3.53;1.77;;;2.70;99.90;;;;;;4177751;28;20278;-62
2023/11/18 08:06:32;;;;;;;2.00;1.00;;;2.60;99.90;;;;;;4176631;28;21041;-60
2023/11/18 08:08:39;;;;;;;2.10;1.13;;;2.60;99.90;;;;;;4169767;28;20270;-61
2023/11/18 08:10:41;;;;;;;2.80;1.53;;;2.70;99.90;;;;;;4153741;28;20337;-61
2023/11/18 08:12:43;;;;;;;2.27;1.57;;;2.60;99.90;;;;;;4177085;28;20270;-61
2023/11/18 08:14:44;;;;;;;5.57;2.23;;;2.70;99.90;;;;;;4178171;28;20312;-59
2023/11/18 08:16:45;;;;;;;3.47;1.73;;;2.60;99.90;;;;;;4170472;28;20324;-61
2023/11/18 08:18:46;;;;;;;5.13;2.10;;;2.60;99.90;;;;;;4178195;28;20741;-61
2023/11/18 08:20:47;;;;;;;4.63;1.67;;;2.70;99.90;;;;;;4177035;28;20322;-62
2023/11/18 08:22:48;;;;;;;2.33;1.40;;;2.60;99.90;;;;;;4178563;28;20714;-60
2023/11/18 08:24:50;;;;;;;3.40;1.70;;;2.60;99.90;;;;;;4177257;28;20270;-61
2023/11/18 08:26:51;;;;;;;4.87;1.70;;;2.60;99.90;;;;;;4178094;28;20621;-60
2023/11/18 08:28:52;;;;;;;3.33;1.50;;;2.60;99.90;;;;;;4177382;28;20270;-62
2023/11/18 08:30:53;;;;;;;2.83;1.57;;;2.60;99.90;;;;;;4178503;28;20269;-60
2023/11/18 08:32:54;;;;;;;3.33;1.37;;;2.60;99.90;;;;;;4177271;28;20620;-59
2023/11/18 08:34:56;;;;;;;1.53;0.97;;;2.60;99.90;;;;;;4167465;28;20716;-61
2023/11/18 08:36:58;;;;;;;5.43;1.53;;;2.60;99.90;;;;;;4160615;28;20577;-60
2023/11/18 08:38:59;;;;;;;0.80;0.80;;;2.70;99.90;;;;;;4162021;28;20676;-61
2023/11/18 08:41:01;;;;;;;1.97;1.10;;;2.60;99.90;;;;;;4160643;28;20287;-62
2023/11/18 08:43:05;;;;;;;2.17;1.47;;;2.60;99.90;;;;;;4160609;28;20305;-60
2023/11/18 08:45:07;;;;;;;2.57;1.10;;;2.60;99.90;;;;;;4161183;28;20727;-60
2023/11/18 08:47:08;;;;;;;2.33;1.10;;;2.60;99.90;;;;;;4160778;28;20260;-62
2023/11/18 08:49:12;;;;;;;4.80;2.10;;;2.60;99.90;;;;;;4162879;28;20278;-61
2023/11/18 08:51:16;;;;;;;6.13;3.43;;;2.60;99.90;;;;;;4159946;28;20663;-62
2023/11/18 08:53:17;;;;;;;7.83;4.07;;;2.60;99.90;;;;;;4161558;28;20411;-61
2023/11/18 08:55:25;;;;;;;6.13;3.07;;;2.60;99.90;;;;;;4159395;28;20267;-61
2023/11/18 08:57:26;;;;;;;5.03;3.13;;;2.60;99.90;;;;;;4161545;28;20277;-61
2023/11/18 08:59:27;;;;;;;51.17;20.23;;;2.60;99.90;;;;;;4160482;28;20340;-62
2023/11/18 09:01:28;;;;;;;42.17;15.10;;;2.60;99.90;;;;;;4162021;28;20317;-62
2023/11/18 09:03:35;;;;;;;61.10;21.57;;;2.60;99.90;;;;;;4165466;28;20270;-59
2023/11/18 09:05:36;;;;;;;34.53;15.90;;;2.60;99.90;;;;;;4175903;28;20279;-62
2023/11/18 09:07:38;;;;;;;22.40;13.30;;;2.60;99.90;;;;;;4156033;28;20278;-62
2023/11/18 09:09:39;;;;;;;7.83;5.50;;;2.60;99.90;;;;;;4161210;28;20345;-63
2023/11/18 09:11:42;;;;;;;3.67;2.60;;;2.50;99.90;;;;;;4142893;28;20283;-60
2023/11/18 09:14:00;;;;;;;2.17;1.70;;;2.50;99.90;;;;;;4161116;28;20255;-62
2023/11/18 09:16:09;;;;;;;2.47;1.90;;;2.50;99.90;;;;;;4160184;28;20729;-60
2023/11/18 09:18:10;;;;;;;1.87;1.43;;;2.50;99.90;;;;;;4161187;28;20393;-58
2023/11/18 09:20:11;;;;;;;1.80;1.17;;;2.40;99.90;;;;;;4159533;28;20322;-62
2023/11/18 09:22:14;;;;;;;1.03;0.93;;;2.40;99.90;;;;;;4160163;28;20251;-59
2023/11/18 09:24:19;;;;;;;2.03;1.10;;;2.50;99.90;;;;;;4171293;28;20254;-63
2023/11/18 09:26:21;;;;;;;7.50;3.77;;;2.40;99.90;;;;;;4168072;28;20324;-62
2023/11/18 09:28:24;;;;;;;15.57;9.13;;;2.50;99.90;;;;;;4160686;28;20579;-60
2023/11/18 09:30:25;;;;;;;11.73;6.70;;;2.50;99.90;;;;;;4160141;28;20278;-60
2023/11/18 09:32:26;;;;;;;9.90;5.10;;;2.50;99.90;;;;;;4160287;28;20819;-64
2023/11/18 09:34:33;;;;;;;14.53;7.77;;;2.40;99.90;;;;;;4159293;28;20263;-60
2023/11/18 09:36:34;;;;;;;17.47;9.40;;;2.40;99.90;;;;;;4160062;28;20303;-62
2023/11/18 09:38:36;;;;;;;12.20;7.23;;;2.50;99.90;;;;;;4160326;28;20282;-61
2023/11/18 09:40:43;;;;;;;6.97;3.80;;;2.50;99.90;;;;;;4161072;28;20270;-61
2023/11/18 09:42:44;;;;;;;10.80;6.33;;;2.40;99.90;;;;;;4159654;28;20275;-59
2023/11/18 09:44:48;;;;;;;7.07;4.07;;;2.40;99.90;;;;;;4160521;28;20754;-63
2023/11/18 09:46:57;;;;;;;5.27;3.10;;;2.40;99.90;;;;;;4160752;28;20282;-62
2023/11/18 09:49:26;;;;;;;6.60;4.00;;;2.40;99.90;;;;;;4164046;28;20762;-62
2023/11/18 09:51:32;;;;;;;7.73;4.53;;;2.40;99.90;;;;;;4176092;28;20603;-60
2023/11/18 09:53:39;;;;;;;5.67;3.37;;;2.50;99.90;;;;;;4177221;28;20261;-64
2023/11/18 09:55:55;;;;;;;8.83;4.37;;;2.40;99.90;;;;;;4157148;28;20786;-62
2023/11/18 09:58:04;;;;;;;9.23;5.50;;;2.50;99.90;;;;;;4177214;28;20261;-63
2023/11/18 10:00:32;;;;;;;6.30;3.97;;;2.50;99.90;;;;;;4174552;28;20266;-62
2023/11/18 10:02:33;;;;;;;8.23;5.50;;;2.50;99.90;;;;;;4171646;28;20393;-62
2023/11/18 10:04:37;;;;;;;6.00;3.67;;;2.50;99.90;;;;;;4175846;28;20262;-60
2023/11/18 10:06:39;;;;;;;7.90;4.23;;;2.50;99.90;;;;;;4175139;28;20278;-60
2023/11/18 10:08:45;;;;;;;7.13;4.47;;;2.50;99.90;;;;;;4176185;28;20254;-61
2023/11/18 10:10:46;;;;;;;5.47;3.83;;;2.50;99.90;;;;;;4177179;28;20791;-61
2023/11/18 10:13:00;;;;;;;8.97;5.23;;;2.50;99.90;;;;;;4174183;28;20282;-59
2023/11/18 10:15:03;;;;;;;12.53;6.40;;;2.50;99.90;;;;;;4176134;28;20254;-61
2023/11/18 10:17:07;;;;;;;8.70;5.67;;;2.50;99.90;;;;;;4156912;28;20302;-63
2023/11/18 10:19:09;;;;;;;11.33;7.07;;;2.40;99.90;;;;;;4177069;28;20331;-61
2023/11/18 10:21:11;;;;;;;9.33;4.83;;;2.40;99.90;;;;;;4175135;28;20278;-63
2023/11/18 10:23:19;;;;;;;7.73;4.90;;;2.50;99.90;;;;;;4174417;28;20349;-62
2023/11/18 10:25:26;;;;;;;7.23;4.30;;;2.50;99.90;;;;;;4175893;28;20269;-62
2023/11/18 10:27:28;;;;;;;4.43;2.73;;;2.50;99.90;;;;;;4176747;28;20552;-63
2023/11/18 10:29:30;;;;;;;11.70;5.73;;;2.50;99.90;;;;;;4175822;28;20246;-64
2023/11/18 10:31:35;;;;;;;5.97;4.20;;;2.60;99.90;;;;;;4176370;28;20253;-63
2023/11/18 10:33:38;;;;;;;4.23;2.50;;;2.60;99.90;;;;;;4173276;28;20254;-63
2023/11/18 10:35:48;;;;;;;4.87;3.30;;;2.60;99.90;;;;;;4175556;28;20316;-62
2023/11/18 10:37:49;;;;;;;7.72;4.68;;;2.60;99.90;;;;;;4176025;28;20270;-62
2023/11/18 10:39:51;;;;;;;5.07;3.10;;;2.60;99.90;;;;;;4158542;28;20470;-62
2023/11/18 10:41:59;;;;;;;5.57;3.53;;;2.60;99.90;;;;;;4176465;28;20270;-62
2023/11/18 10:44:15;;;;;;;7.70;4.63;;;2.60;99.90;;;;;;4175822;28;20274;-62
2023/11/18 10:46:17;;;;;;;5.33;3.33;;;2.60;99.90;;;;;;4175375;28;20275;-63